Time;durP1;ratioP1;P1;durP2;ratioP2;P2;SDS_P1;SDS_P2;PMS_P1;PMS_P2;Temp;Humidity;BMP_temperature;BMP_pressure;BME280_temperature;BME280_humidity;BME280_pressure;Samples;Min_cycle;Max_cycle;Signal;HPM_P1;HPM_P2
2022/07/04 00:02:23;;;;;;;5.40;1.10;;;;;;;11.57;56.80;101828.78;4992964;28;20110;-79
2022/07/04 00:04:49;;;;;;;1.75;1.08;;;;;;;11.71;56.66;101837.09;4995409;28;20038;-79
2022/07/04 00:07:14;;;;;;;5.85;1.92;;;;;;;11.59;56.62;101838.28;5012649;28;20070;-78
2022/07/04 00:09:40;;;;;;;3.25;1.30;;;;;;;11.53;56.66;101835.00;4992051;28;20852;-79
2022/07/04 00:12:05;;;;;;;3.10;0.98;;;;;;;11.59;56.79;101833.06;4996480;28;20847;-77
2022/07/04 00:14:31;;;;;;;2.05;0.90;;;;;;;11.62;56.67;101838.22;4994590;28;20104;-77
2022/07/04 00:16:57;;;;;;;3.05;1.20;;;;;;;11.52;56.36;101835.91;4994965;28;20305;-78
2022/07/04 00:19:22;;;;;;;2.50;1.35;;;;;;;11.44;56.64;101834.38;4996240;28;20160;-77
2022/07/04 00:21:48;;;;;;;3.75;1.23;;;;;;;11.39;56.87;101841.47;5006273;28;20443;-77
2022/07/04 00:24:13;;;;;;;5.32;1.38;;;;;;;11.38;56.82;101839.78;4992694;28;20037;-77
2022/07/04 00:26:39;;;;;;;5.53;1.20;;;;;;;11.15;57.59;101844.78;4994000;28;20233;-79
2022/07/04 00:29:04;;;;;;;1.65;0.98;;;;;;;11.34;57.15;101842.53;4977779;28;21045;-76
2022/07/04 00:31:29;;;;;;;2.17;1.05;;;;;;;11.31;57.04;101843.47;4994954;28;21120;-78
2022/07/04 00:33:55;;;;;;;2.28;0.93;;;;;;;11.24;57.13;101842.78;4991632;28;20351;-78
2022/07/04 00:36:20;;;;;;;2.97;1.50;;;;;;;11.26;57.09;101845.34;4994087;28;20163;-76
2022/07/04 00:38:46;;;;;;;4.95;1.15;;;;;;;11.18;57.07;101847.31;4993349;28;20204;-79
2022/07/04 00:41:11;;;;;;;6.10;1.90;;;;;;;11.13;57.44;101849.19;5009817;28;20073;-78
2022/07/04 00:43:37;;;;;;;1.92;1.20;;;;;;;10.94;57.80;101839.22;4994654;28;20133;-77
2022/07/04 00:46:04;;;;;;;9.07;1.73;;;;;;;10.98;57.44;101845.22;4994171;28;20037;-75
2022/07/04 00:48:30;;;;;;;3.33;1.63;;;;;;;11.03;57.85;101844.19;4995268;28;20113;-78
2022/07/04 00:50:55;;;;;;;1.77;1.00;;;;;;;11.10;57.30;101849.28;4992667;28;20453;-77
2022/07/04 00:53:23;;;;;;;3.63;0.95;;;;;;;10.95;57.70;101848.78;4991601;28;20088;-77
2022/07/04 00:55:50;;;;;;;4.55;1.60;;;;;;;11.04;57.64;101853.78;4976843;28;20112;-77
2022/07/04 00:58:19;;;;;;;4.25;1.35;;;;;;;10.92;57.92;101842.78;4993146;28;20412;-77
2022/07/04 01:00:44;;;;;;;2.50;0.80;;;;;;;11.01;57.54;101851.22;4992882;28;20045;-78
2022/07/04 01:03:10;;;;;;;3.75;1.00;;;;;;;11.15;57.00;101845.66;4995341;28;20045;-76
2022/07/04 01:05:37;;;;;;;2.25;1.40;;;;;;;11.17;56.85;101845.59;4997638;28;20018;-75
2022/07/04 01:08:03;;;;;;;1.45;0.82;;;;;;;11.20;56.99;101837.69;4977926;28;20045;-76
2022/07/04 01:10:29;;;;;;;4.45;1.23;;;;;;;11.22;56.42;101828.88;4996627;28;20034;-77
2022/07/04 01:12:54;;;;;;;2.20;1.20;;;;;;;11.15;56.53;101843.03;5005442;28;20049;-77
2022/07/04 01:15:20;;;;;;;1.83;0.80;;;;;;;11.03;56.70;101843.34;4994811;28;20041;-76
2022/07/04 01:17:45;;;;;;;2.80;0.77;;;;;;;10.95;56.94;101840.94;4996336;28;20163;-76
2022/07/04 01:20:15;;;;;;;2.17;0.90;;;;;;;10.96;56.98;101842.66;4995978;28;20069;-78
2022/07/04 01:22:41;;;;;;;2.38;1.27;;;;;;;11.00;56.95;101836.44;4980139;28;20045;-77
2022/07/04 01:25:10;;;;;;;1.85;1.10;;;;;;;10.96;57.18;101836.56;4995914;28;20033;-76
2022/07/04 01:27:35;;;;;;;7.75;1.15;;;;;;;10.98;57.51;101835.63;4992478;28;20141;-75
2022/07/04 01:30:01;;;;;;;4.50;1.13;;;;;;;10.95;57.36;101838.34;4994474;28;20034;-77
2022/07/04 01:32:27;;;;;;;2.53;1.00;;;;;;;11.00;57.08;101838.22;4994195;28;20528;-79
2022/07/04 01:34:52;;;;;;;4.43;0.70;;;;;;;10.99;56.90;101834.72;5007092;28;20030;-78
2022/07/04 01:37:18;;;;;;;2.15;0.70;;;;;;;10.89;57.11;101840.25;4994146;28;20459;-76
2022/07/04 01:39:44;;;;;;;2.75;1.48;;;;;;;10.82;56.94;101831.69;4991893;28;20038;-77
2022/07/04 01:42:09;;;;;;;1.63;0.90;;;;;;;10.75;56.98;101832.69;4995099;28;21339;-79
2022/07/04 01:44:36;;;;;;;5.05;1.27;;;;;;;10.74;57.20;101841.44;4980674;28;20034;-77
2022/07/04 01:47:02;;;;;;;2.92;1.17;;;;;;;10.76;57.15;101839.66;4980393;28;20038;-78
2022/07/04 01:49:28;;;;;;;4.65;1.45;;;;;;;10.75;57.55;101848.38;4982600;28;20034;-78
2022/07/04 01:51:53;;;;;;;2.55;1.23;;;;;;;10.74;57.38;101846.69;4992953;28;20432;-78
2022/07/04 01:54:19;;;;;;;2.30;1.67;;;;;;;10.82;57.24;101834.31;4994168;28;20503;-78
2022/07/04 01:56:45;;;;;;;2.17;1.58;;;;;;;10.81;57.03;101843.91;4992649;28;20057;-79
2022/07/04 01:59:11;;;;;;;3.83;1.38;;;;;;;10.86;56.96;101841.19;4992497;28;20663;-76
2022/07/04 02:01:37;;;;;;;2.80;1.35;;;;;;;10.73;57.20;101834.53;4977886;28;20729;-76
2022/07/04 02:04:04;;;;;;;2.78;1.55;;;;;;;10.71;57.42;101841.53;4991662;28;20355;-75
2022/07/04 02:06:32;;;;;;;2.90;1.20;;;;;;;10.68;57.07;101841.59;4993824;28;20041;-77
2022/07/04 02:09:16;;;;;;;2.63;1.33;;;;;;;10.64;57.37;101844.31;4992672;28;20053;-76
2022/07/04 02:14:28;;;;;;;2.42;1.63;;;;;;;10.71;57.04;101841.53;4991748;28;20112;-76
2022/07/04 02:16:54;;;;;;;4.97;1.20;;;;;;;10.68;57.16;101839.00;4993983;28;20042;-77
2022/07/04 02:19:19;;;;;;;2.92;1.30;;;;;;;10.73;57.07;101842.38;4996530;28;20062;-76
2022/07/04 02:21:45;;;;;;;2.95;1.20;;;;;;;10.74;57.11;101841.44;4992323;28;20069;-76
2022/07/04 02:24:11;;;;;;;3.47;1.67;;;;;;;10.64;56.97;101839.06;4995123;28;20458;-75
2022/07/04 02:26:36;;;;;;;1.73;1.10;;;;;;;10.56;56.98;101838.41;4996236;28;20034;-76
2022/07/04 02:29:02;;;;;;;2.30;1.15;;;;;;;10.66;57.02;101835.53;4978738;28;20042;-76
2022/07/04 02:31:28;;;;;;;4.60;1.45;;;;;;;10.63;57.37;101832.13;4999995;28;20029;-77
2022/07/04 02:33:53;;;;;;;4.68;1.10;;;;;;;10.62;56.77;101827.78;4977206;28;20054;-76
2022/07/04 02:36:19;;;;;;;1.55;0.60;;;;;;;10.65;56.78;101832.09;5010530;28;20034;-77
2022/07/04 02:38:44;;;;;;;2.50;1.00;;;;;;;10.66;57.08;101831.22;5014611;28;20635;-78
2022/07/04 02:41:09;;;;;;;2.00;1.48;;;;;;;10.50;56.89;101828.09;5002082;28;20107;-78
2022/07/04 02:43:35;;;;;;;2.10;0.95;;;;;;;10.55;56.90;101826.25;5000223;28;20875;-77
2022/07/04 02:46:00;;;;;;;3.90;1.67;;;;;;;10.49;56.87;101823.78;4999918;28;20029;-79
2022/07/04 02:48:26;;;;;;;5.03;1.50;;;;;;;10.43;57.40;101818.69;4998992;28;20040;-76
2022/07/04 02:50:51;;;;;;;3.80;1.33;;;;;;;10.37;57.46;101816.22;4998911;28;20104;-76
2022/07/04 02:53:17;;;;;;;4.20;1.10;;;;;;;10.38;57.17;101816.19;4998689;28;20042;-79
2022/07/04 02:55:42;;;;;;;1.80;1.27;;;;;;;10.36;57.28;101814.50;5000843;28;20072;-78
2022/07/04 02:58:08;;;;;;;3.17;1.40;;;;;;;10.44;57.44;101820.41;4998144;28;20048;-77
2022/07/04 03:00:33;;;;;;;4.25;1.10;;;;;;;10.44;57.13;101823.03;4999239;28;20120;-76
2022/07/04 03:02:59;;;;;;;2.13;1.67;;;;;;;10.52;57.45;101825.44;5011326;28;20093;-76
2022/07/04 03:05:24;;;;;;;2.60;1.40;;;;;;;10.51;57.41;101827.19;4995501;28;20064;-76
2022/07/04 03:07:50;;;;;;;5.10;1.60;;;;;;;10.48;57.43;101818.56;4995562;28;20088;-78
2022/07/04 03:10:15;;;;;;;4.70;2.00;;;;;;;10.52;57.06;101831.53;4999608;28;20034;-78
2022/07/04 03:12:41;;;;;;;2.88;1.10;;;;;;;10.57;56.84;101824.44;4993701;28;20042;-76
2022/07/04 03:15:06;;;;;;;2.75;1.02;;;;;;;10.53;56.79;101827.19;4996752;28;20631;-77
2022/07/04 03:17:32;;;;;;;3.13;1.10;;;;;;;10.57;56.99;101826.19;4974026;28;20483;-78
2022/07/04 03:19:57;;;;;;;3.38;1.58;;;;;;;10.57;57.08;101828.78;4981250;28;20526;-76
2022/07/04 03:22:23;;;;;;;3.35;1.83;;;;;;;10.50;57.26;101824.63;4994795;28;20042;-76
2022/07/04 03:24:48;;;;;;;2.50;1.10;;;;;;;10.49;57.16;101818.53;4999440;28;20037;-77
2022/07/04 03:27:14;;;;;;;2.90;0.80;;;;;;;10.52;57.06;101826.28;5009998;28;20069;-77
2022/07/04 03:29:40;;;;;;;3.50;1.42;;;;;;;10.52;57.05;101826.28;4998467;28;20045;-77
2022/07/04 03:32:05;;;;;;;2.42;1.40;;;;;;;10.45;57.04;101827.34;4993020;28;20038;-77
2022/07/04 03:34:31;;;;;;;3.45;1.70;;;;;;;10.37;56.91;101829.28;5012421;28;20034;-77
2022/07/04 03:36:56;;;;;;;7.78;2.45;;;;;;;10.34;57.22;101821.53;4993950;28;20116;-77
2022/07/04 03:39:22;;;;;;;5.07;1.85;;;;;;;10.33;57.52;101825.03;4998133;28;20582;-76
2022/07/04 03:41:48;;;;;;;4.45;1.50;;;;;;;10.38;57.16;101823.16;4995470;28;20041;-75
2022/07/04 03:44:13;;;;;;;2.33;1.50;;;;;;;10.52;57.14;101831.53;4997137;28;20526;-78
2022/07/04 03:46:39;;;;;;;3.42;1.77;;;;;;;10.49;57.20;101828.13;4994305;28;20555;-76
2022/07/04 03:49:05;;;;;;;4.82;1.25;;;;;;;10.55;57.27;101841.91;4991075;28;20046;-78
2022/07/04 03:51:31;;;;;;;2.38;1.45;;;;;;;10.61;56.95;101851.34;4980619;28;20045;-76
2022/07/04 03:53:56;;;;;;;3.58;2.47;;;;;;;10.56;56.95;101843.63;4990206;28;20042;-76
2022/07/04 03:56:22;;;;;;;2.47;1.98;;;;;;;10.60;56.83;101841.81;4997709;28;20065;-77
2022/07/04 03:58:48;;;;;;;4.88;2.45;;;;;;;10.69;57.24;101843.34;4989808;28;20046;-76
2022/07/04 04:01:18;;;;;;;2.50;1.92;;;;;;;10.79;56.81;101844.81;4998092;28;20038;-77
2022/07/04 04:06:29;;;;;;;5.03;2.13;;;;;;;10.84;56.73;101848.22;4996983;28;20041;-77
2022/07/04 04:08:55;;;;;;;4.07;1.83;;;;;;;10.86;56.80;101845.53;4993987;28;20049;-76
2022/07/04 04:11:21;;;;;;;5.03;2.25;;;;;;;10.87;56.58;101847.28;4996868;28;20411;-77
2022/07/04 04:13:46;;;;;;;3.03;1.80;;;;;;;10.93;56.63;101847.09;4994566;28;20077;-76
2022/07/04 04:16:12;;;;;;;3.58;1.42;;;;;;;11.01;56.57;101850.38;4994413;28;20038;-76
2022/07/04 04:18:37;;;;;;;7.07;2.70;;;;;;;10.98;56.46;101856.56;4984104;28;20042;-77
2022/07/04 04:21:04;;;;;;;4.75;1.42;;;;;;;11.11;56.49;101858.84;4994419;28;20045;-76
2022/07/04 04:23:30;;;;;;;6.28;1.90;;;;;;;10.99;56.08;101858.25;4993476;28;20046;-75
2022/07/04 04:25:56;;;;;;;7.32;2.15;;;;;;;10.50;57.23;101859.44;5007781;28;20050;-75
2022/07/04 04:28:22;;;;;;;4.22;1.70;;;;;;;10.93;56.82;101853.22;4979795;28;20500;-78
2022/07/04 04:30:47;;;;;;;5.47;1.92;;;;;;;11.13;56.32;101859.66;4995305;28;20120;-76
2022/07/04 04:33:13;;;;;;;5.78;2.05;;;;;;;11.34;56.20;101869.53;4977332;28;20467;-77
2022/07/04 04:35:38;;;;;;;2.47;1.42;;;;;;;11.54;56.09;101860.28;4995294;28;20061;-77
2022/07/04 04:38:04;;;;;;;4.90;1.63;;;;;;;11.62;55.20;101853.06;4992993;28;20393;-79
2022/07/04 04:40:29;;;;;;;4.78;1.65;;;;;;;11.72;55.31;101854.50;4995115;28;20034;-75
2022/07/04 04:42:55;;;;;;;4.32;2.55;;;;;;;11.87;55.13;101859.34;4991971;28;20046;-76
2022/07/04 04:45:21;;;;;;;6.00;4.57;;;;;;;11.81;54.98;101864.75;4993240;28;20042;-76
2022/07/04 04:47:47;;;;;;;7.75;3.35;;;;;;;12.01;55.13;101861.53;4993994;28;20045;-78
2022/07/04 04:50:14;;;;;;;4.97;2.53;;;;;;;12.11;54.82;101867.38;4995772;28;20088;-76
2022/07/04 04:52:42;;;;;;;4.68;1.98;;;;;;;12.17;54.72;101869.78;4991075;28;20834;-76
2022/07/04 04:55:09;;;;;;;3.35;1.85;;;;;;;12.19;54.45;101870.59;4998044;28;20038;-76
2022/07/04 04:57:34;;;;;;;2.03;1.67;;;;;;;12.10;54.83;101870.03;4994392;28;20038;-76
2022/07/04 05:00:00;;;;;;;4.45;2.47;;;;;;;12.27;54.70;101873.00;4996848;28;20060;-77
2022/07/04 05:02:26;;;;;;;6.03;2.10;;;;;;;12.45;54.13;101871.56;4991304;28;20045;-76
2022/07/04 05:04:52;;;;;;;4.13;2.45;;;;;;;12.17;54.43;101866.31;4994031;28;20521;-76
2022/07/04 05:07:19;;;;;;;2.40;1.98;;;;;;;12.89;54.19;101861.38;4994460;28;20048;-78
2022/07/04 05:09:44;;;;;;;3.80;2.65;;;;;;;14.04;51.89;101864.25;4993270;28;20065;-75
2022/07/04 05:12:10;;;;;;;6.90;2.47;;;;;;;16.47;46.19;101869.47;4993096;28;20951;-77
2022/07/04 05:14:36;;;;;;;4.32;2.50;;;;;;;18.35;41.38;101863.91;4993992;28;20042;-77
2022/07/04 05:17:02;;;;;;;6.32;2.33;;;;;;;19.44;38.81;101862.72;4992260;28;20038;-77
2022/07/04 05:19:27;;;;;;;4.38;1.02;;;;;;;20.25;37.36;101858.53;4995028;28;20065;-78
2022/07/04 05:21:53;;;;;;;2.08;1.13;;;;;;;20.57;36.57;101855.53;4990497;28;20048;-77
2022/07/04 05:24:18;;;;;;;3.40;1.20;;;;;;;21.16;34.99;101858.59;4990087;28;20512;-76
2022/07/04 05:26:44;;;;;;;4.60;1.23;;;;;;;21.63;33.95;101848.25;4995667;28;20614;-76
2022/07/04 05:29:09;;;;;;;2.92;1.20;;;;;;;22.01;34.51;101850.75;4993720;28;20038;-77
2022/07/04 05:31:35;;;;;;;3.60;1.25;;;;;;;22.13;32.58;101841.88;4994625;28;20511;-79
2022/07/04 05:34:00;;;;;;;4.88;1.17;;;;;;;22.23;32.30;101846.56;4992163;28;21032;-80
2022/07/04 05:36:26;;;;;;;7.95;1.15;;;;;;;22.66;32.25;101856.63;5009262;28;20038;-78
2022/07/04 05:38:52;;;;;;;4.25;0.98;;;;;;;23.06;30.68;101861.56;4975038;28;20057;-77
2022/07/04 05:41:17;;;;;;;2.60;1.20;;;;;;;22.21;31.87;101851.97;4975569;28;20034;-78
2022/07/04 05:43:43;;;;;;;4.75;1.08;;;;;;;22.29;32.70;101857.59;4978037;28;20033;-78
2022/07/04 05:46:09;;;;;;;4.30;1.40;;;;;;;20.29;35.70;101866.19;5000431;28;20121;-79
2022/07/04 05:48:35;;;;;;;3.05;1.35;;;;;;;20.12;36.31;101858.44;4999826;28;20164;-78
2022/07/04 05:51:00;;;;;;;3.58;1.27;;;;;;;20.60;36.36;101858.00;4983138;28;20626;-79
2022/07/04 05:53:26;;;;;;;7.53;1.65;;;;;;;20.77;36.07;101849.72;4998637;28;20127;-78
2022/07/04 05:55:51;;;;;;;2.67;1.33;;;;;;;21.46;34.13;101846.75;4984688;28;20103;-80
2022/07/04 05:58:17;;;;;;;4.63;0.93;;;;;;;22.39;32.31;101849.75;5006757;28;20038;-78
2022/07/04 06:00:42;;;;;;;2.05;0.93;;;;;;;23.19;32.49;101859.66;4999855;28;20033;-77
2022/07/04 06:03:08;;;;;;;4.63;1.60;;;;;;;22.30;32.28;101858.44;4998611;28;20037;-77
2022/07/04 06:05:33;;;;;;;4.55;1.38;;;;;;;22.43;32.93;101864.53;5015025;28;20386;-77
2022/07/04 06:07:59;;;;;;;4.95;1.45;;;;;;;21.66;35.92;101864.81;4995375;28;20037;-77
2022/07/04 06:10:24;;;;;;;2.38;1.02;;;;;;;22.13;33.56;101860.53;5000864;28;20228;-77
2022/07/04 06:12:50;;;;;;;1.40;0.88;;;;;;;23.89;31.18;101865.69;4993728;28;20053;-78
2022/07/04 06:15:15;;;;;;;3.28;0.70;;;;;;;25.26;30.50;101863.91;4982383;28;20073;-78
2022/07/04 06:17:42;;;;;;;1.73;0.60;;;;;;;25.67;28.05;101871.97;4950206;28;20076;-76
2022/07/04 06:20:08;;;;;;;7.85;1.52;;;;;;;22.73;31.55;101881.84;4987086;28;20033;-76
2022/07/04 06:22:44;;;;;;;3.17;0.88;;;;;;;23.70;30.59;101877.84;4994271;28;20042;-79
2022/07/04 06:25:14;;;;;;;4.75;1.25;;;;;;;25.02;29.22;101872.25;4997815;28;20076;-76
2022/07/04 06:27:42;;;;;;;2.40;1.35;;;;;;;26.07;27.72;101863.03;4958737;28;20137;-77
2022/07/04 06:30:08;;;;;;;3.90;1.00;;;;;;;24.34;29.87;101862.84;4981080;28;20048;-78
2022/07/04 06:32:54;;;;;;;3.22;0.73;;;;;;;25.66;28.35;101862.22;5011728;28;20065;-77
2022/07/04 06:38:08;;;;;;;4.35;1.48;;;;;;;25.40;28.51;101867.19;4996445;28;20389;-76
2022/07/04 06:40:35;;;;;;;3.58;0.70;;;;;;;24.82;28.82;101855.22;4996867;28;20096;-76
2022/07/04 06:43:01;;;;;;;3.03;1.10;;;;;;;23.66;29.91;101859.53;5007167;28;20120;-75
2022/07/04 06:45:27;;;;;;;3.28;1.05;;;;;;;24.37;29.41;101865.25;5008161;28;20057;-74
2022/07/04 06:47:52;;;;;;;5.07;1.05;;;;;;;23.91;30.84;101863.75;4990865;28;20681;-75
2022/07/04 06:50:18;;;;;;;4.35;0.98;;;;;;;25.31;29.89;101859.97;5011699;28;20496;-75
2022/07/04 06:52:44;;;;;;;2.60;1.10;;;;;;;25.37;27.76;101862.94;4993132;28;20690;-75
2022/07/04 06:55:10;;;;;;;4.60;0.70;;;;;;;24.34;31.16;101861.03;4995555;28;20040;-74
2022/07/04 06:57:36;;;;;;;7.05;1.50;;;;;;;23.26;30.66;101852.84;4992147;28;20322;-76
2022/07/04 07:00:03;;;;;;;3.78;0.73;;;;;;;23.87;30.23;101862.28;4994799;28;20084;-75
2022/07/04 07:02:28;;;;;;;3.90;0.80;;;;;;;25.02;29.32;101861.53;4994031;28;20148;-75
2022/07/04 07:04:56;;;;;;;5.57;0.90;;;;;;;26.69;26.88;101859.06;4995795;28;20040;-75
2022/07/04 07:07:22;;;;;;;5.22;0.60;;;;;;;25.34;27.58;101860.53;4993824;28;20046;-77
2022/07/04 07:09:47;;;;;;;5.72;1.33;;;;;;;24.18;29.73;101856.13;4995751;28;20052;-77
2022/07/04 07:12:12;;;;;;;3.90;1.02;;;;;;;23.48;31.23;101852.03;4994730;28;20037;-74
2022/07/04 07:14:38;;;;;;;4.95;0.60;;;;;;;22.16;33.64;101849.66;4998050;28;20029;-76
2022/07/04 07:17:04;;;;;;;4.30;1.05;;;;;;;23.11;31.02;101843.38;4992714;28;20748;-74
2022/07/04 07:19:29;;;;;;;3.88;0.60;;;;;;;22.55;31.17;101844.94;5011293;28;20096;-75
2022/07/04 07:21:55;;;;;;;4.07;0.50;;;;;;;22.74;32.16;101847.09;4992107;28;20515;-76
2022/07/04 07:24:20;;;;;;;2.45;0.45;;;;;;;23.70;30.16;101853.81;4994487;28;20675;-77
2022/07/04 07:26:45;;;;;;;5.20;0.88;;;;;;;24.35;29.45;101853.88;4979264;28;20052;-77
2022/07/04 07:29:11;;;;;;;2.53;0.65;;;;;;;23.38;30.26;101857.22;4996148;28;20034;-75
2022/07/04 07:31:36;;;;;;;1.30;0.30;;;;;;;24.69;29.15;101848.38;4996347;28;20030;-77
2022/07/04 07:34:02;;;;;;;2.33;0.20;;;;;;;25.95;28.02;101846.19;4991474;28;20038;-75
2022/07/04 07:36:27;;;;;;;4.30;0.60;;;;;;;26.23;26.62;101841.88;4998151;28;20030;-76
2022/07/04 07:38:55;;;;;;;2.90;0.73;;;;;;;25.35;27.58;101838.19;4992992;28;20076;-75
2022/07/04 07:41:21;;;;;;;4.82;0.50;;;;;;;24.02;29.96;101839.69;4997479;28;20037;-75
2022/07/04 07:43:46;;;;;;;2.25;0.40;;;;;;;26.07;26.92;101842.44;4992960;28;20041;-77
2022/07/04 07:46:12;;;;;;;3.97;0.93;;;;;;;28.33;24.56;101833.34;4994364;28;20045;-75
2022/07/04 07:48:37;;;;;;;3.22;0.63;;;;;;;27.60;25.43;101846.84;4993649;28;20215;-75
2022/07/04 07:51:03;;;;;;;1.98;0.50;;;;;;;25.79;27.94;101846.75;4991451;28;20046;-76
2022/07/04 07:53:28;;;;;;;2.28;0.95;;;;;;;26.81;26.55;101835.59;4993600;28;20046;-78
2022/07/04 07:55:54;;;;;;;2.60;0.70;;;;;;;26.70;27.00;101839.28;4992644;28;20710;-76
2022/07/04 07:58:19;;;;;;;2.30;0.57;;;;;;;28.52;24.77;101835.84;5009275;28;20086;-76
2022/07/04 08:00:46;;;;;;;6.35;0.52;;;;;;;27.27;24.72;101833.03;4992982;28;20021;-76
2022/07/04 08:05:55;;;;;;;2.25;0.52;;;;;;;24.38;29.46;101849.09;4990704;28;20062;-79
2022/07/04 08:08:23;;;;;;;2.00;0.40;;;;;;;23.88;30.58;101853.31;4993651;28;20655;-77
2022/07/04 08:10:49;;;;;;;1.73;0.20;;;;;;;22.86;31.88;101847.97;4990994;28;20042;-79
2022/07/04 08:13:15;;;;;;;1.25;0.20;;;;;;;20.58;34.76;101857.25;4998623;28;20049;-76
2022/07/04 08:15:40;;;;;;;1.52;0.30;;;;;;;21.81;33.02;101851.38;4997717;28;20346;-77
2022/07/04 08:18:06;;;;;;;2.85;0.30;;;;;;;23.60;29.42;101855.53;4994775;28;20650;-77
2022/07/04 08:20:31;;;;;;;4.88;0.68;;;;;;;21.77;32.57;101851.59;4993944;28;20033;-77
2022/07/04 08:22:57;;;;;;;2.53;0.60;;;;;;;21.63;33.88;101849.09;5007131;28;20046;-78
2022/07/04 08:25:22;;;;;;;2.08;0.77;;;;;;;22.12;33.36;101852.66;4995484;28;20784;-76
2022/07/04 08:27:48;;;;;;;3.35;0.40;;;;;;;23.81;30.77;101848.44;4991142;28;20046;-77
2022/07/04 08:30:13;;;;;;;2.80;0.40;;;;;;;22.58;32.49;101843.88;4994411;28;20053;-78
2022/07/04 08:32:39;;;;;;;2.63;0.60;;;;;;;21.17;33.98;101854.97;4993985;28;20393;-77
2022/07/04 08:35:05;;;;;;;2.22;0.77;;;;;;;22.07;32.71;101845.00;4995561;28;20033;-77
2022/07/04 08:37:31;;;;;;;2.05;0.30;;;;;;;20.67;35.48;101846.00;4994847;28;20319;-76
2022/07/04 08:39:56;;;;;;;3.50;0.55;;;;;;;19.51;38.02;101853.44;5005645;28;21491;-78
2022/07/04 08:42:22;;;;;;;3.95;0.52;;;;;;;20.33;37.42;101858.88;4992668;28;20038;-77
2022/07/04 08:44:53;;;;;;;1.88;0.57;;;;;;;20.41;36.00;101850.41;4992704;28;20917;-76
2022/07/04 08:47:23;;;;;;;3.38;0.60;;;;;;;19.71;37.15;101849.56;4994448;28;20064;-78
2022/07/04 08:49:58;;;;;;;3.93;0.47;;;;;;;19.27;37.93;101855.81;4992968;28;20084;-76
2022/07/04 08:52:52;;;;;;;2.90;0.47;;;;;;;18.60;39.42;101855.38;4992664;28;20044;-77
2022/07/04 09:00:50;;;;;;;5.45;0.73;;;;;;;21.35;35.65;101861.66;5008934;28;20392;-77
2022/07/04 09:03:18;;;;;;;2.72;0.63;;;;;;;21.47;34.44;101848.47;4993095;28;20109;-77
2022/07/04 09:05:43;;;;;;;2.88;0.55;;;;;;;22.14;32.40;101846.25;5007040;28;20037;-77
2022/07/04 09:08:09;;;;;;;3.17;0.40;;;;;;;20.81;34.58;101856.53;4991745;28;20053;-78
2022/07/04 09:10:34;;;;;;;3.40;0.32;;;;;;;20.37;34.65;101857.69;5007394;28;20042;-76
2022/07/04 09:13:03;;;;;;;0.93;0.20;;;;;;;19.28;36.79;101862.81;4987565;28;20042;-78
2022/07/04 09:15:29;;;;;;;3.90;0.50;;;;;;;19.84;36.63;101870.00;4992103;28;20033;-78
2022/07/04 09:17:54;;;;;;;1.52;0.40;;;;;;;21.17;34.12;101856.78;4987671;28;20618;-79
2022/07/04 09:20:22;;;;;;;3.78;0.32;;;;;;;21.49;33.46;101857.19;4998881;28;20179;-77
2022/07/04 09:22:49;;;;;;;0.63;0.30;;;;;;;22.92;31.31;101854.66;4994429;28;20046;-79
2022/07/04 09:25:16;;;;;;;1.42;0.30;;;;;;;25.28;29.23;101845.03;5000460;28;20041;-74
2022/07/04 09:27:44;;;;;;;2.72;0.30;;;;;;;25.99;28.12;101844.94;5010672;28;20695;-77
2022/07/04 09:30:12;;;;;;;0.85;0.30;;;;;;;27.60;24.19;101846.84;4997941;28;20046;-76
2022/07/04 09:32:46;;;;;;;3.78;0.45;;;;;;;26.32;25.12;101842.03;4995394;28;20061;-76
2022/07/04 09:35:17;;;;;;;0.90;0.38;;;;;;;26.89;24.41;101837.53;5001747;28;20047;-78
2022/07/04 09:37:48;;;;;;;0.50;0.30;;;;;;;25.37;24.65;101843.38;5010922;28;20349;-76
2022/07/04 09:40:29;;;;;;;2.65;0.20;;;;;;;24.97;25.79;101833.50;5012090;28;20031;-76
2022/07/04 09:42:57;;;;;;;3.10;0.57;;;;;;;24.16;27.05;101846.53;4995111;28;20042;-77
2022/07/04 09:45:24;;;;;;;1.33;0.28;;;;;;;24.02;27.69;101845.03;5014504;28;20045;-77
2022/07/04 09:47:55;;;;;;;2.40;0.20;;;;;;;23.79;29.24;101845.06;4989652;28;20057;-76
2022/07/04 09:50:22;;;;;;;2.17;0.20;;;;;;;22.97;29.87;101839.16;4998201;28;20141;-76
2022/07/04 09:52:51;;;;;;;1.75;0.20;;;;;;;21.46;32.43;101841.44;5010207;28;20049;-77
2022/07/04 09:55:34;;;;;;;1.92;0.60;;;;;;;19.42;35.46;101847.88;4975739;28;20735;-76
2022/07/04 09:58:08;;;;;;;1.25;0.20;;;;;;;18.44;37.31;101857.22;4996237;28;20550;-77
2022/07/04 10:00:36;;;;;;;2.35;0.30;;;;;;;18.87;36.88;101866.16;4997683;28;20322;-78
2022/07/04 10:03:25;;;;;;;1.58;0.40;;;;;;;18.24;38.57;101872.47;4994606;28;20038;-77
2022/07/04 10:06:06;;;;;;;2.17;0.73;;;;;;;17.10;39.97;101880.34;4980343;28;20044;-77
2022/07/04 10:08:33;;;;;;;4.15;0.88;;;;;;;17.70;39.83;101879.00;4993723;28;20645;-77
2022/07/04 10:11:00;;;;;;;2.97;1.00;;;;;;;17.47;41.59;101889.00;4991868;28;20065;-77
2022/07/04 10:13:26;;;;;;;1.67;0.28;;;;;;;17.84;40.53;101885.22;4997048;28;20045;-76
2022/07/04 10:15:52;;;;;;;2.42;0.30;;;;;;;18.43;39.99;101885.50;4990557;28;20033;-77
2022/07/04 10:18:19;;;;;;;1.33;0.47;;;;;;;18.45;40.67;101878.34;5010142;28;20373;-77
2022/07/04 10:20:46;;;;;;;4.15;0.55;;;;;;;18.91;40.00;101876.59;5008654;28;20034;-76
2022/07/04 10:23:11;;;;;;;3.97;0.52;;;;;;;19.36;39.62;101874.75;4995681;28;20046;-77
2022/07/04 10:25:37;;;;;;;3.15;0.73;;;;;;;19.57;37.59;101876.09;4978919;28;20045;-77
2022/07/04 10:28:03;;;;;;;4.78;0.65;;;;;;;19.51;37.48;101872.00;5010606;28;20545;-76
2022/07/04 10:30:32;;;;;;;3.53;0.40;;;;;;;20.03;36.16;101864.34;4993880;28;20048;-76
2022/07/04 10:33:03;;;;;;;2.83;0.55;;;;;;;20.50;35.23;101863.06;5008466;28;20042;-76
2022/07/04 10:35:55;;;;;;;2.25;0.32;;;;;;;21.19;32.62;101868.16;5011842;28;20030;-78
2022/07/04 10:38:21;;;;;;;;;;;;;;;22.55;30.76;101858.28;4997469;28;20172;-77
2022/07/04 10:40:54;;;;;;;6.82;0.40;;;;;;;22.42;31.52;101849.50;4991302;28;19917;-77
2022/07/04 10:43:41;;;;;;;2.22;0.40;;;;;;;22.38;31.17;101850.69;4996971;28;20098;-77
2022/07/04 10:46:12;;;;;;;2.92;0.47;;;;;;;21.42;32.15;101854.06;4997922;28;20081;-77
2022/07/04 10:49:08;;;;;;;3.40;0.35;;;;;;;21.91;32.12;101849.72;4995354;28;20065;-77
2022/07/04 10:51:52;;;;;;;1.17;0.57;;;;;;;21.26;32.12;101845.50;4979869;28;20054;-74
2022/07/04 10:54:19;;;;;;;3.78;0.35;;;;;;;21.11;32.43;101850.94;4995769;28;20100;-74
2022/07/04 10:56:49;;;;;;;1.85;0.30;;;;;;;21.23;32.91;101843.06;4995269;28;20026;-76
2022/07/04 10:59:22;;;;;;;3.83;0.63;;;;;;;21.62;33.36;101847.38;4996867;28;20388;-77
2022/07/04 11:02:01;;;;;;;4.85;0.38;;;;;;;21.86;32.07;101849.22;5010492;28;20042;-75
2022/07/04 11:04:54;;;;;;;2.78;0.20;;;;;;;20.92;32.04;101838.06;5010404;28;20026;-76
2022/07/04 11:07:22;;;;;;;3.38;0.35;;;;;;;20.35;32.69;101840.19;4996689;28;20042;-76
2022/07/04 11:10:10;;;;;;;1.63;0.28;;;;;;;20.58;32.62;101843.97;4994343;28;20046;-75
2022/07/04 11:12:57;;;;;;;4.40;0.20;;;;;;;20.58;31.86;101844.81;4980705;28;20088;-80
2022/07/04 11:15:27;;;;;;;5.03;0.17;;;;;;;20.54;33.03;101844.16;4998197;28;20775;-76
2022/07/04 11:18:00;;;;;;;0.50;0.10;;;;;;;21.50;32.20;101837.63;4992590;28;20089;-76
2022/07/04 11:20:28;;;;;;;0.98;0.10;;;;;;;22.29;30.97;101835.41;4999272;28;20038;-76
2022/07/04 11:23:26;;;;;;;6.22;0.52;;;;;;;22.93;29.46;101832.34;4971017;28;20083;-76
2022/07/04 11:25:54;;;;;;;1.30;0.17;;;;;;;22.01;30.73;101829.47;4927005;28;20046;-76
2022/07/04 11:28:29;;;;;;;2.17;0.52;;;;;;;21.37;31.00;101826.97;4996298;28;20037;-74
2022/07/04 11:30:57;;;;;;;1.20;0.20;;;;;;;21.29;31.92;101830.19;4992763;28;20048;-77
2022/07/04 11:33:25;;;;;;;1.60;0.20;;;;;;;20.87;32.19;101832.22;4992343;28;20132;-78
2022/07/04 11:36:12;;;;;;;1.27;0.10;;;;;;;21.91;30.39;101820.44;4992544;28;20064;-77
2022/07/04 11:38:54;;;;;;;3.67;0.20;;;;;;;22.16;30.34;101817.72;4993747;28;20141;-77
2022/07/04 11:47:18;;;;;;;4.60;0.10;;;;;;;23.51;29.30;101824.25;4994487;28;20374;-77
2022/07/04 11:49:57;;;;;;;0.93;0.20;;;;;;;22.79;29.12;101817.44;4994242;28;20129;-75